sensor_id;sensor_type;location;lat;lon;timestamp;P1;durP1;ratioP1;P2;durP2;ratioP2
71042;SDS011;58696;52.134;5.500;2023-03-14T00:00:26;8.20;;;3.58;;
71042;SDS011;58696;52.134;5.500;2023-03-14T00:02:53;10.43;;;3.28;;
71042;SDS011;58696;52.134;5.500;2023-03-14T00:05:22;13.10;;;3.28;;
71042;SDS011;58696;52.134;5.500;2023-03-14T00:07:49;10.85;;;2.78;;
71042;SDS011;58696;52.134;5.500;2023-03-14T00:10:21;15.45;;;3.22;;
71042;SDS011;58696;52.134;5.500;2023-03-14T00:12:51;13.73;;;3.45;;
71042;SDS011;58696;52.134;5.500;2023-03-14T00:15:21;12.70;;;3.58;;
71042;SDS011;58696;52.134;5.500;2023-03-14T00:17:47;7.20;;;2.55;;
71042;SDS011;58696;52.134;5.500;2023-03-14T00:20:18;10.38;;;3.03;;
71042;SDS011;58696;52.134;5.500;2023-03-14T00:22:45;10.27;;;2.63;;
71042;SDS011;58696;52.134;5.500;2023-03-14T00:25:12;10.77;;;3.42;;
71042;SDS011;58696;52.134;5.500;2023-03-14T00:27:41;12.38;;;2.80;;
71042;SDS011;58696;52.134;5.500;2023-03-14T00:30:10;7.30;;;2.25;;
71042;SDS011;58696;52.134;5.500;2023-03-14T00:32:37;10.85;;;2.67;;
71042;SDS011;58696;52.134;5.500;2023-03-14T00:35:08;11.77;;;2.50;;
71042;SDS011;58696;52.134;5.500;2023-03-14T00:37:35;10.40;;;2.72;;
71042;SDS011;58696;52.134;5.500;2023-03-14T00:40:04;12.70;;;3.33;;
71042;SDS011;58696;52.134;5.500;2023-03-14T00:42:33;7.28;;;2.00;;
71042;SDS011;58696;52.134;5.500;2023-03-14T00:45:02;7.93;;;2.17;;
71042;SDS011;58696;52.134;5.500;2023-03-14T00:47:36;4.47;;;1.90;;
71042;SDS011;58696;52.134;5.500;2023-03-14T00:52:32;9.02;;;1.70;;
71042;SDS011;58696;52.134;5.500;2023-03-14T00:54:59;6.05;;;1.95;;
71042;SDS011;58696;52.134;5.500;2023-03-14T00:57:25;7.95;;;2.13;;
71042;SDS011;58696;52.134;5.500;2023-03-14T00:59:51;9.30;;;1.90;;
71042;SDS011;58696;52.134;5.500;2023-03-14T01:02:18;6.35;;;1.90;;
71042;SDS011;58696;52.134;5.500;2023-03-14T01:04:48;11.70;;;2.60;;
71042;SDS011;58696;52.134;5.500;2023-03-14T01:07:16;5.50;;;1.42;;
71042;SDS011;58696;52.134;5.500;2023-03-14T01:09:45;5.90;;;1.80;;
71042;SDS011;58696;52.134;5.500;2023-03-14T01:12:12;6.22;;;1.38;;
71042;SDS011;58696;52.134;5.500;2023-03-14T01:14:38;6.25;;;1.58;;
71042;SDS011;58696;52.134;5.500;2023-03-14T01:17:05;9.70;;;1.67;;
71042;SDS011;58696;52.134;5.500;2023-03-14T01:19:35;6.53;;;1.75;;
71042;SDS011;58696;52.134;5.500;2023-03-14T01:22:03;6.75;;;1.35;;
71042;SDS011;58696;52.134;5.500;2023-03-14T01:24:31;3.30;;;1.33;;
71042;SDS011;58696;52.134;5.500;2023-03-14T01:26:57;3.20;;;1.20;;
71042;SDS011;58696;52.134;5.500;2023-03-14T01:29:26;9.48;;;1.58;;
71042;SDS011;58696;52.134;5.500;2023-03-14T01:31:57;8.40;;;1.60;;
71042;SDS011;58696;52.134;5.500;2023-03-14T01:34:29;5.70;;;1.38;;
71042;SDS011;58696;52.134;5.500;2023-03-14T01:36:57;5.22;;;1.42;;
71042;SDS011;58696;52.134;5.500;2023-03-14T01:39:29;6.50;;;1.20;;
71042;SDS011;58696;52.134;5.500;2023-03-14T01:41:56;6.60;;;0.90;;
71042;SDS011;58696;52.134;5.500;2023-03-14T01:46:52;6.88;;;1.08;;
71042;SDS011;58696;52.134;5.500;2023-03-14T01:49:29;5.00;;;1.33;;
71042;SDS011;58696;52.134;5.500;2023-03-14T01:57:11;5.57;;;1.65;;
71042;SDS011;58696;52.134;5.500;2023-03-14T01:59:39;6.97;;;1.30;;
71042;SDS011;58696;52.134;5.500;2023-03-14T02:02:12;7.75;;;1.63;;
71042;SDS011;58696;52.134;5.500;2023-03-14T02:04:44;4.60;;;1.80;;
71042;SDS011;58696;52.134;5.500;2023-03-14T02:12:51;6.18;;;1.17;;
71042;SDS011;58696;52.134;5.500;2023-03-14T02:15:22;3.45;;;1.48;;
71042;SDS011;58696;52.134;5.500;2023-03-14T02:17:54;4.45;;;1.67;;
71042;SDS011;58696;52.134;5.500;2023-03-14T02:22:59;9.43;;;1.40;;
71042;SDS011;58696;52.134;5.500;2023-03-14T02:28:20;2.13;;;1.10;;
71042;SDS011;58696;52.134;5.500;2023-03-14T02:30:53;7.47;;;1.73;;
71042;SDS011;58696;52.134;5.500;2023-03-14T02:33:20;3.53;;;1.05;;
71042;SDS011;58696;52.134;5.500;2023-03-14T02:35:57;7.40;;;1.35;;
71042;SDS011;58696;52.134;5.500;2023-03-14T02:41:02;9.18;;;1.63;;
71042;SDS011;58696;52.134;5.500;2023-03-14T02:43:29;4.68;;;1.30;;
71042;SDS011;58696;52.134;5.500;2023-03-14T02:45:58;10.82;;;2.20;;
71042;SDS011;58696;52.134;5.500;2023-03-14T02:48:30;5.75;;;1.67;;
71042;SDS011;58696;52.134;5.500;2023-03-14T02:51:04;4.45;;;1.55;;
71042;SDS011;58696;52.134;5.500;2023-03-14T02:53:35;6.70;;;1.58;;
71042;SDS011;58696;52.134;5.500;2023-03-14T02:56:08;10.27;;;1.60;;
71042;SDS011;58696;52.134;5.500;2023-03-14T03:01:05;8.32;;;1.25;;
71042;SDS011;58696;52.134;5.500;2023-03-14T03:03:34;4.03;;;1.42;;
71042;SDS011;58696;52.134;5.500;2023-03-14T03:06:03;5.97;;;1.73;;
71042;SDS011;58696;52.134;5.500;2023-03-14T03:08:34;7.18;;;1.70;;
71042;SDS011;58696;52.134;5.500;2023-03-14T03:11:04;5.40;;;1.40;;
71042;SDS011;58696;52.134;5.500;2023-03-14T03:13:33;4.80;;;1.80;;
71042;SDS011;58696;52.134;5.500;2023-03-14T03:16:01;3.47;;;1.70;;
71042;SDS011;58696;52.134;5.500;2023-03-14T03:18:28;6.05;;;1.92;;
71042;SDS011;58696;52.134;5.500;2023-03-14T03:20:54;5.50;;;1.52;;
71042;SDS011;58696;52.134;5.500;2023-03-14T03:23:24;6.53;;;1.95;;
71042;SDS011;58696;52.134;5.500;2023-03-14T03:25:51;8.73;;;2.00;;
71042;SDS011;58696;52.134;5.500;2023-03-14T03:28:18;6.78;;;1.90;;
71042;SDS011;58696;52.134;5.500;2023-03-14T03:30:45;4.90;;;1.77;;
71042;SDS011;58696;52.134;5.500;2023-03-14T03:33:15;9.70;;;1.67;;
71042;SDS011;58696;52.134;5.500;2023-03-14T03:35:46;6.13;;;1.55;;
71042;SDS011;58696;52.134;5.500;2023-03-14T03:38:16;7.22;;;1.63;;
71042;SDS011;58696;52.134;5.500;2023-03-14T03:40:46;9.13;;;2.28;;
71042;SDS011;58696;52.134;5.500;2023-03-14T03:43:12;4.50;;;1.98;;
71042;SDS011;58696;52.134;5.500;2023-03-14T03:45:39;5.95;;;1.73;;
71042;SDS011;58696;52.134;5.500;2023-03-14T03:48:07;8.95;;;1.75;;
71042;SDS011;58696;52.134;5.500;2023-03-14T03:50:36;4.65;;;1.63;;
71042;SDS011;58696;52.134;5.500;2023-03-14T03:53:04;4.85;;;1.30;;
71042;SDS011;58696;52.134;5.500;2023-03-14T03:55:34;7.90;;;2.10;;
71042;SDS011;58696;52.134;5.500;2023-03-14T03:58:05;2.33;;;1.20;;
71042;SDS011;58696;52.134;5.500;2023-03-14T04:00:35;4.45;;;1.63;;
71042;SDS011;58696;52.134;5.500;2023-03-14T04:03:01;11.43;;;2.42;;
71042;SDS011;58696;52.134;5.500;2023-03-14T04:05:29;6.95;;;1.42;;
71042;SDS011;58696;52.134;5.500;2023-03-14T04:07:58;4.95;;;1.70;;
71042;SDS011;58696;52.134;5.500;2023-03-14T04:10:28;6.50;;;1.98;;
71042;SDS011;58696;52.134;5.500;2023-03-14T04:12:56;5.65;;;1.80;;
71042;SDS011;58696;52.134;5.500;2023-03-14T04:15:24;5.22;;;1.48;;
71042;SDS011;58696;52.134;5.500;2023-03-14T04:17:56;3.73;;;1.43;;
71042;SDS011;58696;52.134;5.500;2023-03-14T04:20:26;5.15;;;1.60;;
71042;SDS011;58696;52.134;5.500;2023-03-14T04:22:55;7.38;;;1.95;;
71042;SDS011;58696;52.134;5.500;2023-03-14T04:25:21;5.30;;;1.40;;
71042;SDS011;58696;52.134;5.500;2023-03-14T04:27:48;7.90;;;1.73;;
71042;SDS011;58696;52.134;5.500;2023-03-14T04:30:18;5.50;;;1.48;;
71042;SDS011;58696;52.134;5.500;2023-03-14T04:32:45;7.63;;;1.95;;
71042;SDS011;58696;52.134;5.500;2023-03-14T04:35:12;2.75;;;1.50;;
71042;SDS011;58696;52.134;5.500;2023-03-14T04:37:41;6.60;;;1.73;;
71042;SDS011;58696;52.134;5.500;2023-03-14T04:42:38;10.60;;;2.17;;
71042;SDS011;58696;52.134;5.500;2023-03-14T04:45:07;9.07;;;1.92;;
71042;SDS011;58696;52.134;5.500;2023-03-14T04:47:34;8.77;;;2.53;;
71042;SDS011;58696;52.134;5.500;2023-03-14T04:50:01;10.10;;;2.08;;
71042;SDS011;58696;52.134;5.500;2023-03-14T04:52:28;7.05;;;2.08;;
71042;SDS011;58696;52.134;5.500;2023-03-14T04:54:54;6.07;;;1.63;;
71042;SDS011;58696;52.134;5.500;2023-03-14T04:57:21;5.70;;;1.73;;
71042;SDS011;58696;52.134;5.500;2023-03-14T04:59:49;3.03;;;1.70;;
71042;SDS011;58696;52.134;5.500;2023-03-14T05:02:21;4.13;;;1.60;;
71042;SDS011;58696;52.134;5.500;2023-03-14T05:04:50;5.35;;;1.83;;
71042;SDS011;58696;52.134;5.500;2023-03-14T05:07:20;5.32;;;1.73;;
71042;SDS011;58696;52.134;5.500;2023-03-14T05:09:49;5.68;;;1.55;;
71042;SDS011;58696;52.134;5.500;2023-03-14T05:12:19;5.05;;;1.63;;
71042;SDS011;58696;52.134;5.500;2023-03-14T05:14:51;6.35;;;1.60;;
71042;SDS011;58696;52.134;5.500;2023-03-14T05:17:18;4.85;;;1.40;;
71042;SDS011;58696;52.134;5.500;2023-03-14T05:19:47;5.50;;;1.60;;
71042;SDS011;58696;52.134;5.500;2023-03-14T05:22:13;7.03;;;1.73;;
71042;SDS011;58696;52.134;5.500;2023-03-14T05:24:43;9.32;;;1.75;;
71042;SDS011;58696;52.134;5.500;2023-03-14T05:27:12;7.07;;;2.05;;
71042;SDS011;58696;52.134;5.500;2023-03-14T05:29:42;3.17;;;1.17;;
71042;SDS011;58696;52.134;5.500;2023-03-14T05:32:08;5.55;;;1.70;;
71042;SDS011;58696;52.134;5.500;2023-03-14T05:34:37;7.90;;;1.70;;
71042;SDS011;58696;52.134;5.500;2023-03-14T05:37:06;6.50;;;1.60;;
71042;SDS011;58696;52.134;5.500;2023-03-14T05:39:34;5.43;;;1.90;;
71042;SDS011;58696;52.134;5.500;2023-03-14T05:42:01;5.07;;;1.33;;
71042;SDS011;58696;52.134;5.500;2023-03-14T05:44:34;3.17;;;1.90;;
71042;SDS011;58696;52.134;5.500;2023-03-14T05:47:02;7.85;;;1.73;;
71042;SDS011;58696;52.134;5.500;2023-03-14T05:49:28;6.22;;;2.38;;
71042;SDS011;58696;52.134;5.500;2023-03-14T05:51:55;5.55;;;1.50;;
71042;SDS011;58696;52.134;5.500;2023-03-14T05:54:24;6.30;;;1.88;;
71042;SDS011;58696;52.134;5.500;2023-03-14T05:56:51;3.58;;;2.20;;
71042;SDS011;58696;52.134;5.500;2023-03-14T05:59:17;4.10;;;1.83;;
71042;SDS011;58696;52.134;5.500;2023-03-14T06:01:46;4.40;;;1.77;;
71042;SDS011;58696;52.134;5.500;2023-03-14T06:04:15;5.78;;;1.77;;
71042;SDS011;58696;52.134;5.500;2023-03-14T06:06:47;3.60;;;2.33;;
71042;SDS011;58696;52.134;5.500;2023-03-14T06:09:13;4.80;;;2.10;;
71042;SDS011;58696;52.134;5.500;2023-03-14T06:11:43;5.85;;;2.50;;
71042;SDS011;58696;52.134;5.500;2023-03-14T06:14:10;4.03;;;2.40;;
71042;SDS011;58696;52.134;5.500;2023-03-14T06:16:37;5.47;;;2.60;;
71042;SDS011;58696;52.134;5.500;2023-03-14T06:19:03;6.32;;;2.47;;
71042;SDS011;58696;52.134;5.500;2023-03-14T06:21:33;5.32;;;2.33;;
71042;SDS011;58696;52.134;5.500;2023-03-14T06:24:00;7.20;;;2.28;;
71042;SDS011;58696;52.134;5.500;2023-03-14T06:26:29;4.25;;;2.50;;
71042;SDS011;58696;52.134;5.500;2023-03-14T06:28:59;6.28;;;2.67;;
71042;SDS011;58696;52.134;5.500;2023-03-14T06:31:30;4.75;;;2.70;;
71042;SDS011;58696;52.134;5.500;2023-03-14T06:33:56;7.30;;;3.07;;
71042;SDS011;58696;52.134;5.500;2023-03-14T06:36:23;6.43;;;2.80;;
71042;SDS011;58696;52.134;5.500;2023-03-14T06:38:50;8.85;;;3.45;;
71042;SDS011;58696;52.134;5.500;2023-03-14T06:41:17;8.43;;;3.63;;
71042;SDS011;58696;52.134;5.500;2023-03-14T06:43:43;5.78;;;3.30;;
71042;SDS011;58696;52.134;5.500;2023-03-14T06:46:12;10.07;;;3.63;;
71042;SDS011;58696;52.134;5.500;2023-03-14T06:48:41;7.15;;;3.50;;
71042;SDS011;58696;52.134;5.500;2023-03-14T06:51:08;6.53;;;3.35;;
71042;SDS011;58696;52.134;5.500;2023-03-14T06:53:34;4.60;;;2.30;;
71042;SDS011;58696;52.134;5.500;2023-03-14T06:56:01;2.67;;;1.50;;
71042;SDS011;58696;52.134;5.500;2023-03-14T06:58:31;2.40;;;1.05;;
71042;SDS011;58696;52.134;5.500;2023-03-14T07:00:58;0.52;;;0.52;;
71042;SDS011;58696;52.134;5.500;2023-03-14T07:03:26;1.08;;;0.50;;
71042;SDS011;58696;52.134;5.500;2023-03-14T07:05:53;1.17;;;0.73;;
71042;SDS011;58696;52.134;5.500;2023-03-14T07:08:22;1.10;;;0.60;;
71042;SDS011;58696;52.134;5.500;2023-03-14T07:10:50;1.30;;;0.65;;
71042;SDS011;58696;52.134;5.500;2023-03-14T07:13:17;3.25;;;1.10;;
71042;SDS011;58696;52.134;5.500;2023-03-14T07:15:44;3.08;;;0.80;;
71042;SDS011;58696;52.134;5.500;2023-03-14T07:18:13;3.03;;;1.13;;
71042;SDS011;58696;52.134;5.500;2023-03-14T07:20:42;1.65;;;0.90;;
71042;SDS011;58696;52.134;5.500;2023-03-14T07:23:10;7.15;;;1.05;;
71042;SDS011;58696;52.134;5.500;2023-03-14T07:25:37;0.90;;;0.63;;
71042;SDS011;58696;52.134;5.500;2023-03-14T07:28:03;2.90;;;0.98;;
71042;SDS011;58696;52.134;5.500;2023-03-14T07:30:32;3.35;;;0.80;;
71042;SDS011;58696;52.134;5.500;2023-03-14T07:33:01;3.95;;;0.60;;
71042;SDS011;58696;52.134;5.500;2023-03-14T07:35:30;1.73;;;0.80;;
71042;SDS011;58696;52.134;5.500;2023-03-14T07:38:00;1.20;;;0.65;;
71042;SDS011;58696;52.134;5.500;2023-03-14T07:40:26;0.85;;;0.77;;
71042;SDS011;58696;52.134;5.500;2023-03-14T07:42:53;5.95;;;0.93;;
71042;SDS011;58696;52.134;5.500;2023-03-14T07:45:21;2.85;;;0.85;;
71042;SDS011;58696;52.134;5.500;2023-03-14T07:47:50;1.77;;;0.80;;
71042;SDS011;58696;52.134;5.500;2023-03-14T07:50:18;0.73;;;0.50;;
71042;SDS011;58696;52.134;5.500;2023-03-14T07:52:49;4.25;;;0.77;;
71042;SDS011;58696;52.134;5.500;2023-03-14T07:55:17;1.38;;;0.65;;
71042;SDS011;58696;52.134;5.500;2023-03-14T07:57:44;5.72;;;0.80;;
71042;SDS011;58696;52.134;5.500;2023-03-14T08:00:11;2.95;;;0.60;;
71042;SDS011;58696;52.134;5.500;2023-03-14T08:02:41;2.75;;;0.70;;
71042;SDS011;58696;52.134;5.500;2023-03-14T08:05:13;3.80;;;0.95;;
71042;SDS011;58696;52.134;5.500;2023-03-14T08:07:41;8.52;;;1.02;;
71042;SDS011;58696;52.134;5.500;2023-03-14T08:10:10;3.47;;;1.25;;
71042;SDS011;58696;52.134;5.500;2023-03-14T08:12:41;4.95;;;0.98;;
71042;SDS011;58696;52.134;5.500;2023-03-14T08:15:13;3.42;;;0.63;;
71042;SDS011;58696;52.134;5.500;2023-03-14T08:17:41;5.18;;;0.70;;
71042;SDS011;58696;52.134;5.500;2023-03-14T08:20:13;3.30;;;0.90;;
71042;SDS011;58696;52.134;5.500;2023-03-14T08:22:42;8.32;;;1.27;;
71042;SDS011;58696;52.134;5.500;2023-03-14T08:25:10;3.45;;;0.75;;
71042;SDS011;58696;52.134;5.500;2023-03-14T08:27:40;5.90;;;1.27;;
71042;SDS011;58696;52.134;5.500;2023-03-14T08:30:08;3.88;;;1.02;;
71042;SDS011;58696;52.134;5.500;2023-03-14T08:32:37;3.50;;;0.52;;
71042;SDS011;58696;52.134;5.500;2023-03-14T08:35:05;3.13;;;0.30;;
71042;SDS011;58696;52.134;5.500;2023-03-14T08:37:32;2.33;;;0.50;;
71042;SDS011;58696;52.134;5.500;2023-03-14T08:40:01;1.70;;;0.50;;
71042;SDS011;58696;52.134;5.500;2023-03-14T08:42:37;1.48;;;0.55;;
71042;SDS011;58696;52.134;5.500;2023-03-14T08:47:40;2.95;;;0.40;;
71042;SDS011;58696;52.134;5.500;2023-03-14T08:50:07;2.55;;;0.55;;
71042;SDS011;58696;52.134;5.500;2023-03-14T08:52:41;5.40;;;0.77;;
71042;SDS011;58696;52.134;5.500;2023-03-14T08:55:10;3.00;;;0.60;;
71042;SDS011;58696;52.134;5.500;2023-03-14T08:57:40;2.33;;;0.60;;
71042;SDS011;58696;52.134;5.500;2023-03-14T09:00:07;3.25;;;0.45;;
71042;SDS011;58696;52.134;5.500;2023-03-14T09:02:41;6.50;;;0.60;;
71042;SDS011;58696;52.134;5.500;2023-03-14T09:05:09;2.38;;;0.63;;
71042;SDS011;58696;52.134;5.500;2023-03-14T09:07:40;1.45;;;0.75;;
71042;SDS011;58696;52.134;5.500;2023-03-14T09:10:07;7.43;;;1.20;;
71042;SDS011;58696;52.134;5.500;2023-03-14T09:12:36;2.35;;;0.60;;
71042;SDS011;58696;52.134;5.500;2023-03-14T09:15:03;6.75;;;0.95;;
71042;SDS011;58696;52.134;5.500;2023-03-14T09:17:35;4.25;;;0.93;;
71042;SDS011;58696;52.134;5.500;2023-03-14T09:20:04;3.53;;;0.82;;
71042;SDS011;58696;52.134;5.500;2023-03-14T09:22:35;6.60;;;1.20;;
71042;SDS011;58696;52.134;5.500;2023-03-14T09:25:02;5.72;;;1.42;;
71042;SDS011;58696;52.134;5.500;2023-03-14T09:27:30;5.75;;;1.05;;
71042;SDS011;58696;52.134;5.500;2023-03-14T09:29:56;7.32;;;1.30;;
71042;SDS011;58696;52.134;5.500;2023-03-14T09:32:23;13.43;;;1.45;;
71042;SDS011;58696;52.134;5.500;2023-03-14T09:34:49;6.07;;;1.20;;
71042;SDS011;58696;52.134;5.500;2023-03-14T09:37:16;7.45;;;1.65;;
71042;SDS011;58696;52.134;5.500;2023-03-14T09:39:48;7.80;;;1.77;;
71042;SDS011;58696;52.134;5.500;2023-03-14T09:42:16;10.52;;;1.67;;
71042;SDS011;58696;52.134;5.500;2023-03-14T09:44:57;8.10;;;1.90;;
71042;SDS011;58696;52.134;5.500;2023-03-14T09:47:26;19.15;;;1.95;;
71042;SDS011;58696;52.134;5.500;2023-03-14T09:49:54;14.48;;;2.05;;
71042;SDS011;58696;52.134;5.500;2023-03-14T09:52:33;11.48;;;2.42;;
71042;SDS011;58696;52.134;5.500;2023-03-14T09:55:15;15.20;;;2.65;;
71042;SDS011;58696;52.134;5.500;2023-03-14T09:57:44;11.18;;;2.03;;
71042;SDS011;58696;52.134;5.500;2023-03-14T10:00:22;10.63;;;2.05;;
71042;SDS011;58696;52.134;5.500;2023-03-14T10:05:33;13.13;;;2.35;;
71042;SDS011;58696;52.134;5.500;2023-03-14T10:07:59;12.40;;;2.17;;
71042;SDS011;58696;52.134;5.500;2023-03-14T10:10:26;14.82;;;2.85;;
71042;SDS011;58696;52.134;5.500;2023-03-14T10:15:51;15.57;;;2.35;;
71042;SDS011;58696;52.134;5.500;2023-03-14T10:18:21;13.82;;;3.00;;
71042;SDS011;58696;52.134;5.500;2023-03-14T10:21:09;14.57;;;2.05;;
71042;SDS011;58696;52.134;5.500;2023-03-14T10:23:42;13.77;;;2.00;;
71042;SDS011;58696;52.134;5.500;2023-03-14T10:29:02;18.40;;;3.13;;
71042;SDS011;58696;52.134;5.500;2023-03-14T10:31:45;18.17;;;2.80;;
71042;SDS011;58696;52.134;5.500;2023-03-14T10:34:30;10.98;;;2.20;;
71042;SDS011;58696;52.134;5.500;2023-03-14T10:36:59;16.67;;;2.58;;
71042;SDS011;58696;52.134;5.500;2023-03-14T10:42:23;14.20;;;2.17;;
71042;SDS011;58696;52.134;5.500;2023-03-14T10:44:57;12.52;;;2.20;;
71042;SDS011;58696;52.134;5.500;2023-03-14T10:47:27;8.80;;;2.13;;
71042;SDS011;58696;52.134;5.500;2023-03-14T10:49:55;11.85;;;2.70;;
71042;SDS011;58696;52.134;5.500;2023-03-14T10:55:13;13.40;;;3.20;;
71042;SDS011;58696;52.134;5.500;2023-03-14T10:57:44;17.55;;;2.60;;
71042;SDS011;58696;52.134;5.500;2023-03-14T11:00:17;12.40;;;2.17;;
71042;SDS011;58696;52.134;5.500;2023-03-14T11:05:49;14.60;;;2.55;;
71042;SDS011;58696;52.134;5.500;2023-03-14T11:11:25;13.50;;;2.60;;
71042;SDS011;58696;52.134;5.500;2023-03-14T11:14:08;15.30;;;3.47;;
71042;SDS011;58696;52.134;5.500;2023-03-14T11:17:02;15.10;;;2.45;;
71042;SDS011;58696;52.134;5.500;2023-03-14T11:27:43;11.77;;;2.45;;
71042;SDS011;58696;52.134;5.500;2023-03-14T11:30:34;13.88;;;2.53;;
71042;SDS011;58696;52.134;5.500;2023-03-14T11:33:24;8.23;;;1.95;;
71042;SDS011;58696;52.134;5.500;2023-03-14T11:36:12;10.52;;;2.40;;
71042;SDS011;58696;52.134;5.500;2023-03-14T11:38:47;13.88;;;2.53;;
71042;SDS011;58696;52.134;5.500;2023-03-14T11:41:20;10.25;;;2.30;;
71042;SDS011;58696;52.134;5.500;2023-03-14T11:43:54;14.18;;;2.83;;
71042;SDS011;58696;52.134;5.500;2023-03-14T11:46:29;12.63;;;1.85;;
71042;SDS011;58696;52.134;5.500;2023-03-14T11:49:11;6.60;;;1.70;;
71042;SDS011;58696;52.134;5.500;2023-03-14T11:51:50;9.43;;;2.17;;
71042;SDS011;58696;52.134;5.500;2023-03-14T11:57:01;6.90;;;1.57;;
71042;SDS011;58696;52.134;5.500;2023-03-14T12:14:02;8.30;;;1.53;;
71042;SDS011;58696;52.134;5.500;2023-03-14T12:16:32;6.43;;;1.42;;
71042;SDS011;58696;52.134;5.500;2023-03-14T12:19:13;7.60;;;1.60;;
71042;SDS011;58696;52.134;5.500;2023-03-14T12:22:21;7.47;;;1.67;;
71042;SDS011;58696;52.134;5.500;2023-03-14T12:24:53;5.10;;;1.23;;
71042;SDS011;58696;52.134;5.500;2023-03-14T12:38:29;9.30;;;1.67;;
71042;SDS011;58696;52.134;5.500;2023-03-14T12:41:02;8.90;;;1.27;;
71042;SDS011;58696;52.134;5.500;2023-03-14T12:43:34;11.30;;;2.47;;
71042;SDS011;58696;52.134;5.500;2023-03-14T12:49:08;4.38;;;1.10;;
71042;SDS011;58696;52.134;5.500;2023-03-14T12:51:38;4.07;;;1.40;;
71042;SDS011;58696;52.134;5.500;2023-03-14T12:59:38;10.13;;;2.15;;
71042;SDS011;58696;52.134;5.500;2023-03-14T13:02:37;2.78;;;0.93;;
71042;SDS011;58696;52.134;5.500;2023-03-14T13:15:45;5.40;;;1.38;;
71042;SDS011;58696;52.134;5.500;2023-03-14T13:21:05;4.13;;;1.23;;
71042;SDS011;58696;52.134;5.500;2023-03-14T13:23:37;6.43;;;1.50;;
71042;SDS011;58696;52.134;5.500;2023-03-14T13:26:11;3.60;;;1.58;;
71042;SDS011;58696;52.134;5.500;2023-03-14T13:28:40;4.35;;;1.35;;
71042;SDS011;58696;52.134;5.500;2023-03-14T13:31:22;6.80;;;1.08;;
71042;SDS011;58696;52.134;5.500;2023-03-14T13:34:04;7.10;;;1.45;;
71042;SDS011;58696;52.134;5.500;2023-03-14T13:36:38;5.47;;;0.95;;
71042;SDS011;58696;52.134;5.500;2023-03-14T13:39:09;10.40;;;1.50;;
71042;SDS011;58696;52.134;5.500;2023-03-14T13:41:44;5.75;;;1.10;;
71042;SDS011;58696;52.134;5.500;2023-03-14T13:44:16;7.50;;;1.33;;
71042;SDS011;58696;52.134;5.500;2023-03-14T13:46:48;5.85;;;1.15;;
71042;SDS011;58696;52.134;5.500;2023-03-14T13:49:24;6.22;;;1.10;;
71042;SDS011;58696;52.134;5.500;2023-03-14T13:51:54;7.57;;;1.83;;
71042;SDS011;58696;52.134;5.500;2023-03-14T13:54:21;7.70;;;1.30;;
71042;SDS011;58696;52.134;5.500;2023-03-14T13:56:49;4.15;;;1.45;;
71042;SDS011;58696;52.134;5.500;2023-03-14T13:59:32;2.33;;;1.00;;
71042;SDS011;58696;52.134;5.500;2023-03-14T14:02:09;8.65;;;1.63;;
71042;SDS011;58696;52.134;5.500;2023-03-14T14:04:46;5.30;;;1.52;;
71042;SDS011;58696;52.134;5.500;2023-03-14T14:07:18;6.43;;;1.95;;
71042;SDS011;58696;52.134;5.500;2023-03-14T14:09:52;4.88;;;1.30;;
71042;SDS011;58696;52.134;5.500;2023-03-14T14:15:02;11.20;;;1.80;;
71042;SDS011;58696;52.134;5.500;2023-03-14T14:20:04;6.40;;;1.40;;
71042;SDS011;58696;52.134;5.500;2023-03-14T14:22:41;7.75;;;1.23;;
71042;SDS011;58696;52.134;5.500;2023-03-14T14:25:12;6.18;;;0.85;;
71042;SDS011;58696;52.134;5.500;2023-03-14T14:27:42;3.72;;;0.95;;
71042;SDS011;58696;52.134;5.500;2023-03-14T14:32:48;6.90;;;1.80;;
71042;SDS011;58696;52.134;5.500;2023-03-14T14:37:49;3.67;;;1.05;;
71042;SDS011;58696;52.134;5.500;2023-03-14T14:40:22;3.75;;;1.58;;
71042;SDS011;58696;52.134;5.500;2023-03-14T14:42:51;4.38;;;1.30;;
71042;SDS011;58696;52.134;5.500;2023-03-14T14:45:19;3.55;;;1.00;;
71042;SDS011;58696;52.134;5.500;2023-03-14T14:56:19;3.13;;;1.20;;
71042;SDS011;58696;52.134;5.500;2023-03-14T14:58:55;2.40;;;0.68;;
71042;SDS011;58696;52.134;5.500;2023-03-14T15:01:26;8.02;;;1.10;;
71042;SDS011;58696;52.134;5.500;2023-03-14T15:03:59;2.83;;;0.88;;
71042;SDS011;58696;52.134;5.500;2023-03-14T15:06:28;7.97;;;1.63;;
71042;SDS011;58696;52.134;5.500;2023-03-14T15:08:55;3.40;;;0.98;;
71042;SDS011;58696;52.134;5.500;2023-03-14T15:11:28;8.75;;;2.13;;
71042;SDS011;58696;52.134;5.500;2023-03-14T15:13:57;8.38;;;1.40;;
71042;SDS011;58696;52.134;5.500;2023-03-14T15:16:25;5.15;;;1.77;;
71042;SDS011;58696;52.134;5.500;2023-03-14T15:18:55;6.15;;;1.23;;
71042;SDS011;58696;52.134;5.500;2023-03-14T15:21:48;9.90;;;2.80;;
71042;SDS011;58696;52.134;5.500;2023-03-14T15:24:20;6.47;;;1.52;;
71042;SDS011;58696;52.134;5.500;2023-03-14T15:26:48;3.85;;;1.30;;
71042;SDS011;58696;52.134;5.500;2023-03-14T15:29:17;3.00;;;0.88;;
71042;SDS011;58696;52.134;5.500;2023-03-14T15:31:49;8.70;;;0.98;;
71042;SDS011;58696;52.134;5.500;2023-03-14T15:34:17;5.15;;;1.35;;
71042;SDS011;58696;52.134;5.500;2023-03-14T15:36:45;4.82;;;1.33;;
71042;SDS011;58696;52.134;5.500;2023-03-14T15:39:14;4.00;;;0.95;;
71042;SDS011;58696;52.134;5.500;2023-03-14T15:41:43;4.47;;;1.40;;
71042;SDS011;58696;52.134;5.500;2023-03-14T15:44:15;13.35;;;1.90;;
71042;SDS011;58696;52.134;5.500;2023-03-14T15:46:42;3.83;;;1.50;;
71042;SDS011;58696;52.134;5.500;2023-03-14T15:49:11;11.35;;;1.88;;
71042;SDS011;58696;52.134;5.500;2023-03-14T15:51:37;3.97;;;1.23;;
71042;SDS011;58696;52.134;5.500;2023-03-14T15:54:09;6.75;;;1.25;;
71042;SDS011;58696;52.134;5.500;2023-03-14T15:56:37;6.53;;;1.55;;
71042;SDS011;58696;52.134;5.500;2023-03-14T15:59:06;3.75;;;0.98;;
71042;SDS011;58696;52.134;5.500;2023-03-14T16:01:33;10.10;;;1.05;;
71042;SDS011;58696;52.134;5.500;2023-03-14T16:04:00;5.15;;;1.08;;
71042;SDS011;58696;52.134;5.500;2023-03-14T16:08:59;6.90;;;1.17;;
71042;SDS011;58696;52.134;5.500;2023-03-14T16:11:32;10.48;;;1.27;;
71042;SDS011;58696;52.134;5.500;2023-03-14T16:14:01;5.90;;;1.60;;
71042;SDS011;58696;52.134;5.500;2023-03-14T16:16:30;5.03;;;2.80;;
71042;SDS011;58696;52.134;5.500;2023-03-14T16:18:59;7.70;;;2.53;;
71042;SDS011;58696;52.134;5.500;2023-03-14T16:21:27;5.32;;;1.27;;
71042;SDS011;58696;52.134;5.500;2023-03-14T16:23:56;2.08;;;1.23;;
71042;SDS011;58696;52.134;5.500;2023-03-14T16:26:22;11.05;;;3.20;;
71042;SDS011;58696;52.134;5.500;2023-03-14T16:28:49;7.75;;;3.17;;
71042;SDS011;58696;52.134;5.500;2023-03-14T16:31:20;9.32;;;2.58;;
71042;SDS011;58696;52.134;5.500;2023-03-14T16:33:48;8.77;;;2.15;;
71042;SDS011;58696;52.134;5.500;2023-03-14T16:36:15;5.13;;;1.77;;
71042;SDS011;58696;52.134;5.500;2023-03-14T16:38:44;12.95;;;1.83;;
71042;SDS011;58696;52.134;5.500;2023-03-14T16:43:38;9.50;;;1.58;;
71042;SDS011;58696;52.134;5.500;2023-03-14T16:46:06;10.25;;;1.52;;
71042;SDS011;58696;52.134;5.500;2023-03-14T16:48:34;5.15;;;1.50;;
71042;SDS011;58696;52.134;5.500;2023-03-14T16:51:00;7.85;;;1.85;;
71042;SDS011;58696;52.134;5.500;2023-03-14T16:53:27;7.63;;;1.23;;
71042;SDS011;58696;52.134;5.500;2023-03-14T16:55:55;5.70;;;1.42;;
71042;SDS011;58696;52.134;5.500;2023-03-14T16:58:23;8.80;;;3.65;;
71042;SDS011;58696;52.134;5.500;2023-03-14T17:00:50;6.85;;;1.23;;
71042;SDS011;58696;52.134;5.500;2023-03-14T17:03:19;4.55;;;1.10;;
71042;SDS011;58696;52.134;5.500;2023-03-14T17:05:46;11.82;;;1.52;;
71042;SDS011;58696;52.134;5.500;2023-03-14T17:10:42;7.28;;;1.25;;
71042;SDS011;58696;52.134;5.500;2023-03-14T17:13:10;5.03;;;1.17;;
71042;SDS011;58696;52.134;5.500;2023-03-14T17:15:38;5.97;;;0.90;;
71042;SDS011;58696;52.134;5.500;2023-03-14T17:18:05;5.80;;;1.33;;